This is the latest recevied weather packets stored in our database for station/object NK7E. If no packets are shown the sender has not sent any weather packets the latest 1 day(s).
| Time | Temp. | Humidity | Pressure | Rain* | Wind** | Luminosity | Snow |
|---|---|---|---|---|---|---|---|
| 1836274690 | 28.33° C | 55% | 1014.9 hPa | 0 mm | 2.68 m/s, 90° | 0 W/m² | - |
| 1836274540 | 27.78° C | 57% | 1015.1 hPa | 0 mm | 1.79 m/s, 90° | 0 W/m² | - |
| 1836274090 | 28.89° C | 53% | 1014.9 hPa | 0 mm | 2.24 m/s, 90° | 0 W/m² | - |
| 1778047216 | 17.22° C | 41% | 1014.1 hPa | 0 mm | 3.13 m/s, 293° | 0 W/m² | - |
| 1778046615 | 16.67° C | 42% | 1014.1 hPa | 0 mm | 3.58 m/s, 293° | 0 W/m² | - |
| 1778046016 | 16.67° C | 43% | 1013.9 hPa | 0 mm | 2.68 m/s, 270° | 0 W/m² | - |
| 1778045416 | 16.67° C | 44% | 1013.9 hPa | 0 mm | 2.68 m/s, 293° | 0 W/m² | - |
| 1778044816 | 16.67° C | 44% | 1013.8 hPa | 0 mm | 2.68 m/s, 270° | 0 W/m² | - |
| 1778044216 | 17.22° C | 44% | 1013.7 hPa | 0 mm | 1.34 m/s, 270° | 0 W/m² | - |
| 1778043616 | 17.22° C | 44% | 1013.6 hPa | 0 mm | 2.24 m/s, 270° | 0 W/m² | - |
| 1778043016 | 17.22° C | 44% | 1013.4 hPa | 0 mm | 2.24 m/s, 270° | 0 W/m² | - |
| 1778042416 | 17.22° C | 45% | 1013.3 hPa | 0 mm | 2.68 m/s, 293° | 0 W/m² | - |
| 1778041816 | 17.78° C | 48% | 1013.3 hPa | 0 mm | 1.34 m/s, 293° | 0 W/m² | - |
| 1778041216 | 17.78° C | 48% | 1013.2 hPa | 0 mm | 1.34 m/s, 270° | 0 W/m² | - |
| 1778040616 | 17.78° C | 48% | 1013.1 hPa | 0 mm | 2.24 m/s, 270° | 0 W/m² | - |
| 1778040016 | 17.78° C | 47% | 1012.8 hPa | 0 mm | 2.24 m/s, 270° | 0 W/m² | - |
| 1778039416 | 17.78° C | 45% | 1012.8 hPa | 0 mm | 2.24 m/s, 293° | 0 W/m² | - |
| 1778038816 | 18.33° C | 43% | 1012.5 hPa | 0 mm | 1.79 m/s, 270° | 0 W/m² | - |
| 1778038216 | 18.33° C | 42% | 1012.3 hPa | 0 mm | 0.89 m/s, 293° | 0 W/m² | - |
| 1778037616 | 18.33° C | 41% | 1012.3 hPa | 0 mm | 1.34 m/s, 293° | 0 W/m² | - |
| 1778037016 | 18.89° C | 40% | 1011.9 hPa | 0 mm | 1.34 m/s, 293° | 0 W/m² | - |
| 1778036416 | 18.89° C | 39% | 1011.9 hPa | 0 mm | 1.79 m/s, 270° | 0 W/m² | - |
| 1778035816 | 18.89° C | 39% | 1011.8 hPa | 0 mm | 1.34 m/s, 270° | 0 W/m² | - |
| 1778035216 | 18.89° C | 38% | 1011.6 hPa | 0 mm | 3.13 m/s, 270° | 0 W/m² | - |
| 1778034616 | 19.44° C | 36% | 1011.5 hPa | 0 mm | 2.24 m/s, 270° | 0 W/m² | - |
* Rain latest hour (hover to see other rain measurements)
** Current wind speed in m/s (hover to see current wind gust speed)